KTAD/TAD METAR and TAF weather

Enter ICAO airport designator
Station Type Date Time Source
KTAD METAR 2022/12/10 01:54 UTC NOAA

KTAD 100154Z AUTO 25011KT 10SM CLR 03/M14 A2999 RMK AO2 SLP177 T00331144


Station Type Date Time Source
KTAD Decoded METAR 2022/12/10 01:54 UTC NOAA

Trinidad, Perry Stokes Airport, CO, United States (KTAD) 37-16N 104-26W
Dec 09, 2022 - 08:54 PM EST / 2022.12.10 0154 UTC
Wind: from the WSW (250 degrees) at 13 MPH (11 KT):0
Visibility: 10 mile(s):0
Sky conditions: clear
Temperature: 37.9 F (3.3 C)
Dew Point: 6.1 F (-14.4 C)
Relative Humidity: 25%
Pressure (altimeter): 29.99 in. Hg (1015 hPa)
ob: KTAD 100154Z AUTO 25011KT 10SM CLR 03/M14 A2999 RMK AO2 SLP177 T00331144
cycle: 2

Station Type Date Time Source
KTAD TAF UTC NOAA

Error!

Example: see airport list